createdAt,value
2023-03-29T11:45:27.543Z,9.0859
2023-03-29T11:46:22.464Z,11.6205
2023-03-29T11:47:24.865Z,9.8031
2023-03-29T11:58:54.896Z,8.0811
2023-03-29T12:03:14.776Z,8.7542
2023-03-29T12:04:11.034Z,9.4933
2023-03-29T12:05:57.752Z,7.5458
2023-03-29T12:17:01.451Z,8.4315
2023-03-29T12:22:38.952Z,7.7824
2023-03-29T12:23:34.269Z,9.5912
2023-03-29T12:24:36.853Z,9.0012
2023-03-29T12:25:39.431Z,8.8393
2023-03-29T12:26:42.017Z,8.3592
2023-03-29T12:27:44.628Z,8.5209
2023-03-29T12:28:47.158Z,8.4795
2023-03-29T12:29:49.733Z,8.1449
2023-03-29T12:30:52.314Z,8.3866
2023-03-29T12:31:55.014Z,8.2905
2023-03-29T12:32:57.521Z,7.7426
2023-03-29T12:34:00.043Z,7.5940
2023-03-29T12:35:02.611Z,7.7689
2023-03-29T12:36:05.233Z,8.2402
2023-03-29T12:37:07.762Z,8.1535
2023-03-29T12:38:10.406Z,8.9292
2023-03-29T12:39:12.938Z,8.2684
2023-03-29T12:40:15.544Z,8.2411
2023-03-29T12:41:18.089Z,7.8236
2023-03-29T12:42:20.698Z,8.1851
2023-03-29T12:43:23.291Z,8.0144
2023-03-29T12:44:25.818Z,8.1193
2023-03-29T12:45:28.406Z,8.1151
2023-03-29T12:46:31.026Z,7.8240
2023-03-29T12:47:33.632Z,8.0045
2023-03-29T12:48:36.189Z,7.7453
2023-03-29T12:49:38.694Z,7.7558
2023-03-29T12:50:41.318Z,7.8976
2023-03-29T12:51:43.917Z,6.8315
2023-03-29T12:52:46.444Z,7.9268
2023-03-29T12:53:49.076Z,7.6564
2023-03-29T12:54:51.752Z,7.4470
2023-03-29T12:55:54.180Z,7.7306
2023-03-29T12:56:56.952Z,7.8360
2023-03-29T12:57:59.476Z,7.1071
2023-03-29T12:59:02.108Z,7.2962
2023-03-29T13:00:04.686Z,7.0958
2023-03-29T13:01:07.400Z,7.2777
2023-03-29T13:02:09.715Z,6.9029
2023-03-29T13:03:12.503Z,7.8302
2023-03-29T13:04:15.072Z,7.0056
2023-03-29T13:05:17.588Z,7.3879
2023-03-29T13:06:20.112Z,6.9609
2023-03-29T13:07:22.779Z,6.6484
2023-03-29T13:08:25.180Z,7.0873
2023-03-29T13:09:27.900Z,6.8633
2023-03-29T13:10:30.502Z,7.1065
2023-03-29T13:11:32.862Z,6.9996
2023-03-29T13:12:35.549Z,6.8017
2023-03-29T13:13:38.071Z,6.9215
2023-03-29T13:14:40.824Z,6.7222
2023-03-29T13:15:44.794Z,6.7512
2023-03-29T13:16:45.877Z,6.6754
2023-03-29T13:17:48.463Z,6.4340
2023-03-29T13:18:51.015Z,6.1497
2023-03-29T13:19:53.487Z,6.1798
2023-03-29T13:20:56.156Z,5.9667
2023-03-29T13:21:58.564Z,6.7190
2023-03-29T13:23:01.352Z,6.5683
2023-03-29T13:24:03.893Z,6.7005
2023-03-29T13:25:06.362Z,6.4614
2023-03-29T13:26:09.022Z,6.4958
2023-03-29T13:27:11.615Z,6.5398
2023-03-29T13:28:14.187Z,6.0672
2023-03-29T13:29:16.661Z,6.6506
2023-03-29T13:30:19.422Z,6.1752
2023-03-29T13:31:21.783Z,6.1078
2023-03-29T13:32:24.394Z,6.0624
2023-03-29T13:33:27.074Z,5.7706
2023-03-29T13:34:29.454Z,6.5029
2023-03-29T13:35:32.099Z,6.3138
2023-03-29T13:36:34.784Z,6.2324
2023-03-29T13:37:37.183Z,5.5771
2023-03-29T13:38:39.782Z,5.9473
2023-03-29T13:39:42.352Z,6.2075
2023-03-29T13:40:44.955Z,6.0263
2023-03-29T13:41:47.696Z,5.7131
2023-03-29T13:42:50.298Z,5.7962
2023-03-29T13:43:52.652Z,5.9253
2023-03-29T13:44:55.385Z,5.6752
2023-03-29T13:45:57.866Z,6.0877
2023-03-29T13:47:00.428Z,5.7994
2023-03-29T13:48:05.738Z,5.8648
2023-03-29T13:49:05.772Z,5.4089
2023-03-29T13:50:08.104Z,5.6475
2023-03-29T13:51:10.889Z,5.7220
2023-03-29T13:52:13.453Z,5.8748
2023-03-29T13:53:16.035Z,5.2075
2023-03-29T13:54:18.600Z,5.3357
2023-03-29T13:55:21.244Z,5.4896
2023-03-29T13:56:23.871Z,5.2471
2023-03-29T13:57:26.272Z,5.3569
2023-03-29T13:58:28.882Z,5.0015
2023-03-29T13:59:31.430Z,5.2300
2023-03-29T14:00:33.879Z,5.3394
2023-03-29T14:01:36.539Z,5.3978
2023-03-29T14:02:39.501Z,5.2519
2023-03-29T14:03:41.792Z,5.4502
2023-03-29T14:04:44.171Z,5.5907
2023-03-29T14:05:46.757Z,5.1484
2023-03-29T14:06:49.356Z,5.6753
2023-03-29T14:07:51.982Z,5.5906
2023-03-29T14:08:54.646Z,5.5266
2023-03-29T14:09:57.274Z,5.5441
2023-03-29T14:10:59.833Z,5.2472
2023-03-29T14:12:02.416Z,5.7896
2023-03-29T14:13:04.955Z,4.9707
2023-03-29T14:14:07.513Z,5.9562
2023-03-29T14:15:09.901Z,5.6177
2023-03-29T14:16:12.696Z,5.3399
2023-03-29T14:17:15.281Z,4.5563
2023-03-29T14:18:17.865Z,4.8203
2023-03-29T14:19:20.417Z,4.8793
2023-03-29T14:20:22.790Z,4.6734
2023-03-29T14:21:25.354Z,4.7455
2023-03-29T14:22:28.159Z,4.5692
2023-03-29T14:23:30.694Z,4.8891
2023-03-29T14:24:33.068Z,4.5840
2023-03-29T14:25:35.879Z,5.0059
2023-03-29T14:26:38.428Z,4.9241
2023-03-29T14:27:41.073Z,4.6896
2023-03-29T14:28:43.537Z,4.7738
2023-03-29T14:29:45.993Z,4.4828
2023-03-29T14:30:48.551Z,4.3525
2023-03-29T14:31:51.380Z,4.5366
2023-03-29T14:32:53.957Z,4.5287
2023-03-29T14:33:56.284Z,4.6496
2023-03-29T14:34:58.831Z,4.7684
2023-03-29T14:36:01.834Z,4.4200
2023-03-29T14:37:04.206Z,4.2827
2023-03-29T14:38:06.618Z,4.5816
2023-03-29T14:39:09.283Z,4.1417
2023-03-29T14:40:11.739Z,4.1827
2023-03-29T14:41:14.456Z,4.2276
2023-03-29T14:42:17.053Z,4.2061
2023-03-29T14:43:19.603Z,4.2478
2023-03-29T14:44:22.810Z,4.2681
2023-03-29T14:45:24.606Z,4.6345
2023-03-29T14:46:27.356Z,4.6994
2023-03-29T14:47:29.852Z,4.2032
2023-03-29T14:48:32.538Z,4.2140
2023-03-29T14:49:34.897Z,3.9930
2023-03-29T14:50:37.640Z,4.6628
2023-03-29T14:51:40.007Z,4.4513
2023-03-29T14:52:43.889Z,4.1253
2023-03-29T14:53:45.360Z,4.0937
2023-03-29T14:54:47.898Z,10.7831
2023-03-29T14:55:50.493Z,36.8812
2023-03-29T14:56:52.926Z,43.7699
2023-03-29T14:57:55.669Z,35.2821
2023-03-29T14:58:58.227Z,27.9765
2023-03-29T15:00:00.632Z,23.6283
2023-03-29T15:01:03.476Z,22.0832
2023-03-29T15:02:05.940Z,24.3286
2023-03-29T15:03:08.644Z,24.7715
2023-03-29T15:04:10.964Z,26.6681
2023-03-29T15:05:13.733Z,26.1866
2023-03-29T15:06:16.307Z,26.2138
2023-03-29T15:07:18.880Z,25.2204
2023-03-29T15:08:21.398Z,22.8492
2023-03-29T15:09:24.006Z,26.5802
2023-03-29T15:10:26.435Z,26.6027
2023-03-29T15:11:29.198Z,24.8670
2023-03-29T15:12:31.546Z,25.1338
2023-03-29T15:13:34.119Z,24.3566
2023-03-29T15:14:36.805Z,25.6950
2023-03-29T15:15:39.425Z,23.2505
2023-03-29T15:16:41.848Z,21.7201
2023-03-29T15:17:51.591Z,21.5101
2023-03-29T15:18:48.056Z,21.9850
2023-03-29T15:19:49.679Z,24.3751
2023-03-29T15:20:52.118Z,22.4225
2023-03-29T15:21:54.797Z,21.7871
2023-03-29T15:22:57.524Z,21.2042
2023-03-29T15:24:00.050Z,20.0513
2023-03-29T15:25:02.487Z,20.0344
2023-03-29T15:26:05.127Z,21.6821
2023-03-29T15:27:07.833Z,20.6614
2023-03-29T15:28:10.451Z,20.2622
2023-03-29T15:29:12.879Z,22.1438
2023-03-29T15:30:15.513Z,21.5106
2023-03-29T15:31:18.090Z,20.4210
2023-03-29T15:32:20.690Z,20.8158
2023-03-29T15:33:23.390Z,20.5357
2023-03-29T15:34:25.847Z,19.8746
2023-03-29T15:35:28.376Z,20.5141
2023-03-29T15:36:30.981Z,19.2951
2023-03-29T15:37:33.543Z,18.7794
2023-03-29T15:38:43.345Z,18.7734
2023-03-29T15:39:39.878Z,17.9306
2023-03-29T15:40:41.343Z,16.9016
2023-03-29T15:41:43.846Z,17.8923
2023-03-29T15:42:46.452Z,17.8230
2023-03-29T15:43:49.066Z,19.4181
2023-03-29T15:44:51.614Z,19.7715
2023-03-29T15:45:54.227Z,19.2360
2023-03-29T15:46:56.788Z,20.1946
2023-03-29T15:47:59.328Z,17.5071
2023-03-29T15:49:01.897Z,16.9717
2023-03-29T15:50:04.405Z,17.4178
2023-03-29T15:51:07.227Z,17.9730
2023-03-29T15:52:09.598Z,16.1731
2023-03-29T15:53:15.392Z,17.3034
2023-03-29T15:54:14.777Z,17.6689
2023-03-29T15:55:17.264Z,16.5378
2023-03-29T15:56:19.916Z,16.1826
2023-03-29T15:57:22.443Z,17.7910
2023-03-29T15:58:25.279Z,16.9965
2023-03-29T15:59:27.707Z,15.6009
2023-03-29T16:00:30.236Z,15.1795
2023-03-29T16:01:32.826Z,16.6035
2023-03-29T16:02:35.449Z,15.1623
2023-03-29T16:03:37.959Z,13.9783
2023-03-29T16:04:40.537Z,15.1286
2023-03-29T16:05:42.933Z,15.1935
2023-03-29T16:06:45.924Z,15.4627
2023-03-29T16:07:48.260Z,16.7880
2023-03-29T16:08:50.848Z,16.6570
2023-03-29T16:09:53.192Z,15.3356
2023-03-29T16:10:55.915Z,15.1323
2023-03-29T16:11:58.596Z,13.9657
2023-03-29T16:13:01.145Z,14.4202
2023-03-29T16:14:03.710Z,15.4270
2023-03-29T16:15:06.273Z,14.5938
2023-03-29T16:16:08.917Z,15.4572
2023-03-29T16:17:11.467Z,15.2441
2023-03-29T16:18:13.996Z,16.7713
2023-03-29T16:19:16.598Z,15.6091
2023-03-29T16:20:19.047Z,15.2522
2023-03-29T16:21:21.906Z,14.5908
2023-03-29T16:22:24.370Z,14.9844
2023-03-29T16:23:26.901Z,15.2355
2023-03-29T16:24:29.366Z,15.6490
2023-03-29T16:25:32.030Z,14.7185
2023-03-29T16:26:34.590Z,14.5681
2023-03-29T16:27:37.210Z,14.0605
2023-03-29T16:28:39.801Z,15.0786
2023-03-29T16:29:42.418Z,13.5914
2023-03-29T16:30:44.938Z,13.3047
2023-03-29T16:31:47.699Z,14.1974
2023-03-29T16:32:50.264Z,13.3892
2023-03-29T16:33:52.720Z,12.7730
2023-03-29T16:34:55.253Z,12.7861
2023-03-29T16:35:57.711Z,13.6082
2023-03-29T16:37:00.633Z,12.6023
2023-03-29T16:38:03.053Z,12.5754
2023-03-29T16:39:05.408Z,12.2149
2023-03-29T16:40:07.886Z,12.7063
2023-03-29T16:41:10.633Z,13.2505
2023-03-29T16:42:13.272Z,13.7978
2023-03-29T16:43:15.625Z,12.5491
2023-03-29T16:44:20.192Z,12.1778
2023-03-29T16:45:20.939Z,11.6971
2023-03-29T16:46:23.612Z,12.4692
2023-03-29T16:47:26.227Z,11.6791
2023-03-29T16:48:28.763Z,10.6121
2023-03-29T16:49:31.276Z,10.8442
2023-03-29T16:50:34.104Z,10.6759
2023-03-29T16:51:36.435Z,10.9436
2023-03-29T16:52:38.868Z,10.0359
2023-03-29T16:53:41.638Z,10.1644
2023-03-29T16:54:44.199Z,9.5616
2023-03-29T16:55:46.788Z,9.4248
2023-03-29T16:56:49.393Z,10.2236
2023-03-29T16:57:51.860Z,9.7997
2023-03-29T16:58:54.544Z,9.9004
2023-03-29T16:59:57.053Z,9.3334
2023-03-29T17:00:59.665Z,10.4418
2023-03-29T17:02:02.376Z,10.3042
2023-03-29T17:03:04.867Z,9.3190
2023-03-29T17:04:07.457Z,9.8416
2023-03-29T17:05:09.863Z,9.8815
2023-03-29T17:06:12.520Z,9.8425
2023-03-29T17:07:15.102Z,8.8633
2023-03-29T17:08:17.670Z,8.8418
2023-03-29T17:09:20.464Z,7.9319
2023-03-29T17:10:22.758Z,8.9706
2023-03-29T17:11:25.355Z,8.5774
2023-03-29T17:12:27.917Z,8.3217
2023-03-29T17:13:30.551Z,8.4666
2023-03-29T17:14:33.175Z,8.3169
2023-03-29T17:15:38.124Z,8.4890
2023-03-29T17:16:38.424Z,9.0145
2023-03-29T17:17:40.701Z,7.9397
2023-03-29T17:18:43.419Z,8.0922
2023-03-29T17:19:46.055Z,7.9925
2023-03-29T17:20:48.752Z,8.1959
2023-03-29T17:21:51.807Z,7.3423
2023-03-29T17:22:53.731Z,6.9955
2023-03-29T17:23:56.328Z,7.0061
2023-03-29T17:24:58.916Z,7.6617
2023-03-29T17:26:01.792Z,6.6640
2023-03-29T17:27:03.791Z,7.1475
2023-03-29T17:28:06.608Z,6.9549
2023-03-29T17:29:09.238Z,7.0907
2023-03-29T17:30:11.741Z,6.9406
2023-03-29T17:31:14.383Z,7.2325
2023-03-29T17:32:16.931Z,7.2726
2023-03-29T17:33:22.221Z,7.4332
2023-03-29T17:34:22.082Z,7.0327
2023-03-29T17:35:24.673Z,7.6216
2023-03-29T17:36:27.264Z,7.8717
2023-03-29T17:37:29.805Z,6.2211
2023-03-29T17:38:32.303Z,6.9206
2023-03-29T17:39:34.946Z,6.2648
2023-03-29T17:40:37.569Z,6.6925
2023-03-29T17:41:40.100Z,6.6551
2023-03-29T17:42:42.612Z,6.4666
2023-03-29T17:43:45.264Z,6.7315
2023-03-29T17:44:47.827Z,6.0103
2023-03-29T17:45:50.487Z,6.2185
2023-03-29T17:46:52.990Z,7.3396
2023-03-29T17:47:55.664Z,5.8053
2023-03-29T17:48:58.177Z,6.4154
2023-03-29T17:50:00.928Z,6.3007
2023-03-29T17:51:03.130Z,6.2799
2023-03-29T17:52:05.871Z,5.5652
2023-03-29T17:53:08.471Z,5.8635
2023-03-29T17:54:10.927Z,5.7742
2023-03-29T17:55:13.394Z,6.0854
2023-03-29T17:56:16.244Z,6.0989
2023-03-29T17:57:18.737Z,5.9095
2023-03-29T17:58:21.425Z,5.7783
2023-03-29T17:59:23.932Z,5.7505
2023-03-29T18:00:26.518Z,5.4016
2023-03-29T18:01:29.155Z,5.3693
2023-03-29T18:02:31.970Z,4.9765
2023-03-29T18:03:34.836Z,4.9069
2023-03-29T18:04:36.815Z,4.8900
2023-03-29T18:05:39.401Z,4.6030
2023-03-29T18:06:42.008Z,4.8070
2023-03-29T18:07:44.478Z,4.9089
2023-03-29T18:08:47.163Z,5.3043
2023-03-29T18:09:49.901Z,5.4406
2023-03-29T18:10:52.314Z,5.2335
2023-03-29T18:11:54.819Z,6.0748
2023-03-29T18:12:57.377Z,5.4545
2023-03-29T18:14:00.012Z,4.9368
2023-03-29T18:15:02.774Z,5.1196
2023-03-29T18:16:05.389Z,4.6816
2023-03-29T18:17:07.837Z,5.0908
2023-03-29T18:18:10.449Z,5.4132
2023-03-29T18:19:12.922Z,4.6139
2023-03-29T18:20:15.432Z,4.4544
2023-03-29T18:21:18.073Z,4.6424
2023-03-29T18:22:20.697Z,4.3928
2023-03-29T18:23:23.115Z,4.3489
2023-03-29T18:24:25.552Z,5.3083
2023-03-29T18:25:28.115Z,6.0117
2023-03-29T18:26:30.834Z,5.9961
2023-03-29T18:27:33.516Z,6.4928
2023-03-29T18:28:36.048Z,6.5601
2023-03-29T18:29:38.421Z,6.9424
2023-03-29T18:30:41.099Z,6.7310
2023-03-29T18:31:43.707Z,6.1160
2023-03-29T18:32:46.390Z,6.0254
2023-03-29T18:33:48.914Z,6.5328
2023-03-29T18:34:51.295Z,6.6435
2023-03-29T18:35:53.894Z,6.0641
2023-03-29T18:36:56.651Z,6.3158
2023-03-29T18:37:59.048Z,5.3267
2023-03-29T18:39:01.777Z,5.9877
2023-03-29T18:40:04.884Z,5.9265
2023-03-29T18:41:06.752Z,6.3666
2023-03-29T18:42:10.923Z,6.2549
2023-03-29T18:43:12.102Z,6.9042
2023-03-29T18:44:14.725Z,6.4822
2023-03-29T18:45:17.052Z,6.7973
2023-03-29T18:46:19.843Z,6.0442
2023-03-29T18:47:22.401Z,6.7127
2023-03-29T18:48:25.012Z,5.8448
2023-03-29T18:49:27.513Z,6.6512
2023-03-29T18:50:29.984Z,6.0294
2023-03-29T18:51:32.597Z,7.4129
2023-03-29T18:52:35.174Z,6.6824
2023-03-29T18:53:37.724Z,6.4828
2023-03-29T18:54:40.236Z,5.8191
2023-03-29T18:55:42.807Z,6.5826
2023-03-29T18:56:45.637Z,6.0489
2023-03-29T18:57:48.165Z,5.2777
2023-03-29T18:58:50.925Z,5.6160
2023-03-29T18:59:53.170Z,5.4091
2023-03-29T19:00:55.737Z,5.7359
2023-03-29T19:01:58.302Z,6.7802
2023-03-29T19:03:00.940Z,6.8824
2023-03-29T19:04:03.529Z,7.1001
2023-03-29T19:05:06.054Z,6.9705
2023-03-29T19:06:08.677Z,7.1028
2023-03-29T19:07:11.223Z,7.3341
2023-03-29T19:08:13.823Z,7.9437
2023-03-29T19:09:16.420Z,8.1389
2023-03-29T19:10:18.990Z,9.0908
2023-03-29T19:11:21.528Z,8.7337
2023-03-29T19:12:24.077Z,9.3888
2023-03-29T19:13:26.666Z,8.9007
2023-03-29T19:14:29.309Z,9.5343
2023-03-29T19:15:31.840Z,8.9132
2023-03-29T19:16:34.405Z,9.1460
2023-03-29T19:17:37.026Z,9.3596
2023-03-29T19:18:39.567Z,8.8584
2023-03-29T19:19:42.154Z,8.6064
2023-03-29T19:20:44.775Z,8.4103
2023-03-29T19:21:47.305Z,8.5582
2023-03-29T19:22:49.859Z,9.0403
2023-03-29T19:23:52.561Z,9.2015
2023-03-29T19:24:55.333Z,8.8101
2023-03-29T19:25:57.595Z,8.6875
2023-03-29T19:27:00.158Z,8.0495
2023-03-29T19:28:02.727Z,7.4670
2023-03-29T19:29:05.334Z,8.8789
2023-03-29T19:30:07.909Z,7.6734
2023-03-29T19:31:10.549Z,7.0629
2023-03-29T19:32:13.069Z,8.0388
2023-03-29T19:33:15.659Z,7.8880
2023-03-29T19:34:18.255Z,7.4808
2023-03-29T19:35:20.859Z,7.1671
2023-03-29T19:36:23.381Z,6.9269
2023-03-29T19:37:25.965Z,6.8327
2023-03-29T19:38:28.537Z,7.4340
2023-03-29T19:39:31.136Z,7.6452
2023-03-29T19:40:33.720Z,7.2071
2023-03-29T19:41:36.286Z,6.8594
2023-03-29T19:42:38.841Z,6.6795
2023-03-29T19:43:41.461Z,7.0037
2023-03-29T19:44:43.992Z,6.6752
2023-03-29T19:45:46.603Z,7.5249
2023-03-29T19:46:49.210Z,7.7665
2023-03-29T19:47:54.661Z,7.8275
2023-03-29T19:48:54.296Z,8.8616
2023-03-29T19:50:04.266Z,9.5348
2023-03-29T19:50:59.462Z,9.0051
2023-03-29T19:52:01.989Z,9.5898
2023-03-29T19:53:04.619Z,8.4872
2023-03-29T19:54:07.234Z,8.1361
2023-03-29T19:55:09.764Z,8.3581
2023-03-29T19:56:12.403Z,8.3668
2023-03-29T19:57:14.950Z,7.7553
2023-03-29T19:58:17.526Z,7.4016
2023-03-29T19:59:20.161Z,8.2312
2023-03-29T20:00:22.639Z,7.2436
2023-03-29T20:01:25.292Z,7.4012
2023-03-29T20:02:27.823Z,6.8022
2023-03-29T20:03:30.516Z,8.0029
2023-03-29T20:04:33.118Z,8.5376
2023-03-29T20:05:35.550Z,7.8135
2023-03-29T20:06:38.151Z,7.1506
2023-03-29T20:07:40.808Z,7.6905
2023-03-29T20:08:43.329Z,7.9774
2023-03-29T20:09:45.910Z,7.1796
2023-03-29T20:10:48.429Z,7.3448
2023-03-29T20:11:50.991Z,7.2165
2023-03-29T20:12:53.603Z,6.6513
2023-03-29T20:13:56.198Z,7.0569
2023-03-29T20:14:58.737Z,7.0836
2023-03-29T20:16:01.376Z,7.5333
2023-03-29T20:17:03.940Z,7.6851
2023-03-29T20:18:06.526Z,7.6694
2023-03-29T20:19:09.059Z,7.2471
2023-03-29T20:20:11.591Z,6.4790
2023-03-29T20:21:14.224Z,6.7534
2023-03-29T20:22:16.814Z,6.9511
2023-03-29T20:23:19.355Z,7.3448
2023-03-29T20:24:21.977Z,7.2047
2023-03-29T20:25:24.531Z,7.0343
2023-03-29T20:26:27.132Z,7.1944
2023-03-29T20:27:29.692Z,7.0922
2023-03-29T20:28:32.267Z,7.1330
2023-03-29T20:29:34.912Z,7.1314
2023-03-29T20:30:37.411Z,7.0706
2023-03-29T20:31:40.035Z,7.0843
2023-03-29T20:32:42.667Z,6.9548
2023-03-29T20:33:45.236Z,7.1618
2023-03-29T20:34:47.821Z,7.1225
2023-03-29T20:35:50.416Z,6.7978
2023-03-29T20:36:53.053Z,7.2511
2023-03-29T20:37:56.997Z,6.7554
2023-03-29T20:38:58.133Z,6.8968
2023-03-29T20:40:00.703Z,6.9309
2023-03-29T20:41:03.504Z,7.0514
2023-03-29T20:42:05.886Z,7.1168
2023-03-29T20:43:08.483Z,6.4886
2023-03-29T20:44:11.061Z,6.4926
2023-03-29T20:45:13.572Z,6.8525
2023-03-29T20:46:16.182Z,6.5988
2023-03-29T20:47:18.768Z,7.0125
2023-03-29T20:48:21.377Z,6.6294
2023-03-29T20:49:23.894Z,6.3163
2023-03-29T20:50:26.473Z,6.9508
2023-03-29T20:51:29.105Z,6.4429
2023-03-29T20:52:31.676Z,6.6281
2023-03-29T20:53:34.277Z,6.1904
2023-03-29T20:54:36.809Z,6.0516
2023-03-29T20:55:39.392Z,6.5813
2023-03-29T20:56:42.081Z,6.9872
2023-03-29T20:57:44.642Z,7.0251
2023-03-29T20:58:47.186Z,6.6181
2023-03-29T20:59:49.691Z,6.0029
2023-03-29T21:00:52.300Z,6.9050
2023-03-29T21:01:54.917Z,6.2906
2023-03-29T21:02:57.586Z,6.6000
2023-03-29T21:04:00.083Z,6.3439
2023-03-29T21:05:02.636Z,6.3938
2023-03-29T21:06:05.180Z,6.4105
2023-03-29T21:07:08.152Z,5.9807
2023-03-29T21:08:10.350Z,6.1744
2023-03-29T21:09:12.942Z,6.5458
2023-03-29T21:10:15.471Z,6.5596
2023-03-29T21:11:18.059Z,6.7362
2023-03-29T21:12:20.677Z,6.1755
2023-03-29T21:13:23.224Z,6.0055
2023-03-29T21:14:25.838Z,5.9157
2023-03-29T21:15:28.454Z,5.5945
2023-03-29T21:16:31.149Z,5.5156
2023-03-29T21:17:33.627Z,5.8580
2023-03-29T21:18:36.162Z,5.8568
2023-03-29T21:19:38.780Z,6.3650
2023-03-29T21:20:41.308Z,5.8675
2023-03-29T21:21:43.888Z,5.9602
2023-03-29T21:22:46.676Z,6.0451
2023-03-29T21:23:49.139Z,5.5106
2023-03-29T21:24:51.905Z,5.4021
2023-03-29T21:25:54.165Z,5.5421
2023-03-29T21:26:56.741Z,5.7718
2023-03-29T21:27:59.356Z,6.4627
2023-03-29T21:29:01.935Z,5.7570
2023-03-29T21:30:04.511Z,6.0609
2023-03-29T21:31:07.268Z,6.1697
2023-03-29T21:32:09.641Z,5.6060
2023-03-29T21:33:12.247Z,5.4694
2023-03-29T21:34:14.873Z,5.5257
2023-03-29T21:35:17.425Z,5.1711
2023-03-29T21:36:20.014Z,5.3406
2023-03-29T21:37:22.548Z,6.0304
2023-03-29T21:38:25.124Z,5.7691
2023-03-29T21:39:27.725Z,6.0749
2023-03-29T21:40:30.324Z,5.4414
2023-03-29T21:41:32.895Z,5.2150
2023-03-29T21:42:35.433Z,4.9970
2023-03-29T21:43:38.268Z,5.3507
2023-03-29T21:44:40.589Z,5.0110
2023-03-29T21:45:43.209Z,5.8008
2023-03-29T21:46:45.792Z,5.5774
2023-03-29T21:47:48.953Z,5.0217
2023-03-29T21:48:50.896Z,5.4627
2023-03-29T21:49:53.494Z,5.5504
2023-03-29T21:50:56.101Z,5.3054
2023-03-29T21:51:58.620Z,5.6053
2023-03-29T21:53:01.203Z,5.3729
2023-03-29T21:54:03.774Z,5.0135
2023-03-29T21:55:06.433Z,4.7965
2023-03-29T21:56:08.980Z,4.9367
2023-03-29T21:57:11.592Z,5.1871
2023-03-29T21:58:14.101Z,4.8308
2023-03-29T21:59:16.670Z,4.7540
2023-03-29T22:00:19.231Z,4.6823
2023-03-29T22:01:21.876Z,4.7570
2023-03-29T22:02:24.439Z,4.8349
2023-03-29T22:03:27.029Z,5.0778
2023-03-29T22:04:36.082Z,4.9055
2023-03-29T22:05:33.134Z,5.1156
2023-03-29T22:06:34.816Z,4.7790
2023-03-29T22:07:37.294Z,4.6431
2023-03-29T22:08:39.892Z,4.4747
2023-03-29T22:09:42.481Z,4.4602
2023-03-29T22:10:45.014Z,4.5272
2023-03-29T22:11:47.634Z,4.8938
2023-03-29T22:12:50.221Z,4.1492
2023-03-29T22:13:52.738Z,4.1969
2023-03-29T22:14:55.344Z,4.5249
2023-03-29T22:15:57.929Z,4.5122
2023-03-29T22:17:00.595Z,4.7401
2023-03-29T22:18:03.083Z,4.7450
2023-03-29T22:19:05.638Z,4.5036
2023-03-29T22:20:08.460Z,5.0206
2023-03-29T22:21:10.804Z,4.8234
2023-03-29T22:22:14.067Z,4.9211
2023-03-29T22:23:15.963Z,4.3594
2023-03-29T22:24:18.514Z,4.9243
2023-03-29T22:25:21.083Z,4.4768
2023-03-29T22:26:23.672Z,4.3179
2023-03-29T22:27:26.290Z,4.2505
2023-03-29T22:28:28.814Z,4.6661
2023-03-29T22:29:31.407Z,4.8412
2023-03-29T22:30:34.076Z,4.2344
2023-03-29T22:31:36.695Z,4.4521
2023-03-29T22:32:39.185Z,4.2820
2023-03-29T22:33:41.708Z,4.5947
2023-03-29T22:34:44.356Z,4.5621
2023-03-29T22:35:46.890Z,3.9886
2023-03-29T22:36:49.521Z,4.5019
2023-03-29T22:37:52.056Z,4.4742
2023-03-29T22:38:54.642Z,4.3837
2023-03-29T22:39:57.233Z,4.5404
2023-03-29T22:40:59.733Z,4.3948
2023-03-29T22:42:02.421Z,3.9065
2023-03-29T22:43:05.629Z,4.1737
2023-03-29T22:44:07.474Z,4.1617
2023-03-29T22:45:10.061Z,4.1579
2023-03-29T22:46:12.695Z,3.8933
2023-03-29T22:47:15.238Z,3.9237
2023-03-29T22:48:17.889Z,3.7325
2023-03-29T22:49:20.413Z,4.0648
2023-03-29T22:50:22.960Z,3.9465
2023-03-29T22:51:25.616Z,3.8494
2023-03-29T22:52:28.315Z,4.1068
2023-03-29T22:53:30.916Z,3.8611
2023-03-29T22:54:33.473Z,4.2427
2023-03-29T22:55:36.034Z,3.8642
2023-03-29T22:56:38.395Z,3.8401
2023-03-29T22:57:41.193Z,3.9437
2023-03-29T22:58:43.821Z,3.9795
2023-03-29T22:59:46.286Z,4.1946
2023-03-29T23:00:48.939Z,4.1107
2023-03-29T23:01:51.538Z,3.9565
2023-03-29T23:02:54.108Z,4.4287
2023-03-29T23:03:56.759Z,3.6324
2023-03-29T23:04:59.259Z,3.3957
2023-03-29T23:06:01.799Z,4.1254
2023-03-29T23:07:04.407Z,4.0344
2023-03-29T23:08:07.145Z,4.1228
2023-03-29T23:09:09.443Z,3.7157
2023-03-29T23:10:12.097Z,3.9598
2023-03-29T23:11:14.720Z,3.7129
2023-03-29T23:12:17.298Z,4.0105
2023-03-29T23:13:19.925Z,3.4919
2023-03-29T23:14:22.661Z,3.4339
2023-03-29T23:15:25.280Z,3.2841
2023-03-29T23:16:27.723Z,3.4474
2023-03-29T23:17:30.217Z,3.5410
2023-03-29T23:18:32.691Z,3.6453
2023-03-29T23:19:35.373Z,3.6318
2023-03-29T23:20:37.897Z,3.3538
2023-03-29T23:21:40.354Z,3.7961
2023-03-29T23:22:43.086Z,3.9320
2023-03-29T23:23:45.456Z,3.6611
2023-03-29T23:24:48.261Z,3.4904
2023-03-29T23:25:50.644Z,3.6859
2023-03-29T23:26:53.212Z,3.6774
2023-03-29T23:27:55.962Z,3.5863
2023-03-29T23:28:58.370Z,3.5516
2023-03-29T23:30:00.990Z,3.8698
2023-03-29T23:31:03.899Z,4.0835
2023-03-29T23:32:06.204Z,3.9750
2023-03-29T23:33:08.870Z,3.7841
2023-03-29T23:34:11.154Z,3.5552
2023-03-29T23:35:14.013Z,3.7662
2023-03-29T23:36:16.582Z,3.7621
2023-03-29T23:37:19.145Z,3.3493
2023-03-29T23:38:21.719Z,3.4648
2023-03-29T23:39:24.310Z,3.5624
2023-03-29T23:40:26.873Z,3.5927
2023-03-29T23:41:29.417Z,3.3402
2023-03-29T23:42:32.210Z,3.1048
2023-03-29T23:43:34.507Z,3.0015
2023-03-29T23:44:37.192Z,3.7842
2023-03-29T23:45:39.806Z,3.9624
2023-03-29T23:46:42.376Z,3.7165
2023-03-29T23:47:44.967Z,3.5430
2023-03-29T23:48:47.478Z,3.5038
2023-03-29T23:49:50.058Z,2.8060
2023-03-29T23:50:52.651Z,3.2315
2023-03-29T23:51:55.179Z,2.8700
2023-03-29T23:52:57.785Z,3.2153
2023-03-29T23:54:00.362Z,3.1911
2023-03-29T23:55:02.949Z,3.0631
2023-03-29T23:56:05.766Z,3.0999
2023-03-29T23:57:08.213Z,3.2931
2023-03-29T23:58:10.677Z,3.2676
2023-03-29T23:59:13.207Z,3.2778
